Time;durP1;ratioP1;P1;durP2;ratioP2;P2;SDS_P1;SDS_P2;PMS_P1;PMS_P2;Temp;Humidity;BMP_temperature;BMP_pressure;BME280_temperature;BME280_humidity;BME280_pressure;Samples;Min_cycle;Max_cycle;Signal;HPM_P1;HPM_P2
2021/12/09 00:01:48;;;;;;;17.80;5.32;;;;;;;1.89;86.57;100023.28;5040620;28;20025;-77
2021/12/09 00:04:18;;;;;;;20.65;6.93;;;;;;;1.90;86.14;100021.47;5035644;28;20116;-76
2021/12/09 00:06:44;;;;;;;18.83;5.80;;;;;;;1.84;86.47;100021.78;5044923;28;20021;-76
2021/12/09 00:09:14;;;;;;;19.40;6.00;;;;;;;1.83;86.56;100025.34;5029717;28;20048;-76
2021/12/09 00:11:44;;;;;;;;;;;;;;;1.89;85.81;100028.56;5038860;28;20083;-76
2021/12/09 00:14:31;;;;;;;20.80;5.80;;;;;;;1.81;86.39;100030.72;5031728;28;19916;-76
2021/12/09 00:17:00;;;;;;;18.60;5.60;;;;;;;1.79;86.48;100027.31;5045063;28;20036;-77
2021/12/09 00:19:26;;;;;;;15.30;5.28;;;;;;;1.76;86.21;100016.88;5032371;28;20087;-77
2021/12/09 00:21:51;;;;;;;17.13;5.38;;;;;;;1.74;86.88;100016.97;5043258;28;20037;-77
2021/12/09 00:24:17;;;;;;;16.60;5.88;;;;;;;1.74;86.65;100019.59;5028705;28;20502;-77
2021/12/09 00:26:46;;;;;;;15.80;5.93;;;;;;;1.73;86.70;100023.19;5041219;28;20128;-77
2021/12/09 00:29:14;;;;;;;21.02;6.28;;;;;;;1.73;87.02;100028.47;5050615;28;20028;-77
2021/12/09 00:31:39;;;;;;;18.13;6.28;;;;;;;1.71;86.87;100024.19;5036091;28;20423;-77
2021/12/09 00:34:04;;;;;;;19.25;6.00;;;;;;;1.74;86.40;100021.38;5043420;28;20103;-77
2021/12/09 00:36:39;;;;;;;17.13;5.88;;;;;;;1.75;86.61;100034.53;5029688;28;20146;-77
2021/12/09 00:39:06;;;;;;;19.45;6.22;;;;;;;1.77;86.57;100033.63;5032997;28;20056;-77
2021/12/09 00:41:32;;;;;;;19.52;6.57;;;;;;;1.72;86.66;100032.06;5037273;28;20033;-77
2021/12/09 00:43:58;;;;;;;22.85;7.22;;;;;;;1.70;87.00;100043.69;5033501;28;20039;-77
2021/12/09 00:46:24;;;;;;;15.65;5.88;;;;;;;1.72;86.85;100032.06;5031274;28;20037;-77
2021/12/09 00:48:49;;;;;;;18.85;5.85;;;;;;;1.72;87.25;100032.06;5034638;28;20503;-77
2021/12/09 00:51:15;;;;;;;19.45;5.88;;;;;;;1.75;87.32;100031.91;5029245;28;20033;-77
2021/12/09 00:53:40;;;;;;;22.63;5.78;;;;;;;1.77;87.40;100031.81;5040066;28;20029;-77
2021/12/09 00:56:09;;;;;;;18.95;6.10;;;;;;;1.79;86.93;100034.38;5059966;28;20492;-77
2021/12/09 00:58:34;;;;;;;18.33;6.00;;;;;;;1.80;86.94;100033.47;5035139;28;20079;-77
2021/12/09 01:01:00;;;;;;;19.63;5.93;;;;;;;1.80;86.89;100036.13;5043509;28;20052;-77
2021/12/09 01:03:25;;;;;;;20.60;6.07;;;;;;;1.79;86.56;100034.38;5034904;28;20124;-77
2021/12/09 01:05:51;;;;;;;21.67;5.63;;;;;;;1.79;86.88;100035.25;5040008;28;20060;-77
2021/12/09 01:08:16;;;;;;;21.67;6.20;;;;;;;1.78;86.58;100036.19;5052233;28;20064;-77
2021/12/09 01:10:41;;;;;;;22.45;6.25;;;;;;;1.78;86.74;100038.00;5034481;28;20048;-77
2021/12/09 01:13:08;;;;;;;17.63;6.57;;;;;;;1.74;86.85;100040.78;5041835;28;20033;-77
2021/12/09 01:15:34;;;;;;;16.42;5.32;;;;;;;1.74;86.61;100035.50;5045193;28;20485;-77
2021/12/09 01:18:00;;;;;;;18.30;6.07;;;;;;;1.73;86.93;100041.72;5047222;28;20036;-77
2021/12/09 01:20:26;;;;;;;18.40;5.55;;;;;;;1.71;86.77;100040.97;5035790;28;20049;-78
2021/12/09 01:22:58;;;;;;;21.02;6.05;;;;;;;1.70;86.76;100033.94;5031864;28;20054;-77
2021/12/09 01:25:26;;;;;;;19.60;6.18;;;;;;;1.71;86.58;100048.03;5032515;28;20041;-77
2021/12/09 01:27:55;;;;;;;15.90;5.95;;;;;;;1.69;87.06;100050.75;5033798;28;20129;-77
2021/12/09 01:30:23;;;;;;;19.30;6.82;;;;;;;1.68;86.71;100048.19;5036422;28;20489;-77
2021/12/09 01:32:53;;;;;;;18.38;7.15;;;;;;;1.67;87.04;100049.97;5041156;28;20039;-77
2021/12/09 01:35:28;;;;;;;16.48;5.95;;;;;;;1.63;86.67;100045.75;5043936;28;20083;-77
2021/12/09 01:37:58;;;;;;;16.58;5.90;;;;;;;1.66;87.30;100050.06;5045575;28;20025;-77
2021/12/09 01:40:26;;;;;;;18.50;6.07;;;;;;;1.59;86.58;100053.94;5042572;28;20031;-78
2021/12/09 01:42:51;;;;;;;24.25;6.88;;;;;;;1.56;87.14;100055.78;5050049;28;20049;-77
2021/12/09 01:45:17;;;;;;;16.13;5.57;;;;;;;1.55;87.10;100054.09;5050514;28;20063;-77
2021/12/09 01:47:42;;;;;;;22.88;6.90;;;;;;;1.55;87.09;100048.78;5041764;28;20117;-77
2021/12/09 01:50:09;;;;;;;19.77;6.38;;;;;;;1.54;87.21;100052.38;5039411;28;20032;-77
2021/12/09 01:52:34;;;;;;;19.23;5.20;;;;;;;1.54;87.42;100047.06;5037136;28;20505;-77
2021/12/09 01:54:59;;;;;;;18.83;6.40;;;;;;;1.53;87.10;100041.84;5046455;28;20106;-77
2021/12/09 01:57:25;;;;;;;18.42;5.97;;;;;;;1.52;87.12;100038.34;5044918;28;20531;-77
2021/12/09 01:59:51;;;;;;;20.95;6.40;;;;;;;1.51;87.28;100036.63;5062564;28;20029;-77
2021/12/09 02:02:16;;;;;;;27.42;6.50;;;;;;;1.52;87.12;100042.78;5042296;28;20044;-77
2021/12/09 02:04:43;;;;;;;18.23;5.90;;;;;;;1.52;86.88;100042.78;5041745;28;20031;-77
2021/12/09 02:07:08;;;;;;;19.60;6.35;;;;;;;1.51;87.27;100035.78;5036681;28;20033;-77
2021/12/09 02:09:35;;;;;;;16.42;5.75;;;;;;;1.50;86.83;100040.19;5035750;28;20029;-77
2021/12/09 02:12:01;;;;;;;16.52;5.53;;;;;;;1.49;87.29;100040.28;5035755;28;20021;-77
2021/12/09 02:14:26;;;;;;;18.30;6.05;;;;;;;1.47;87.46;100034.22;5049145;28;20124;-77
2021/12/09 02:16:51;;;;;;;20.52;6.03;;;;;;;1.50;87.18;100034.06;5048867;28;20113;-77
2021/12/09 02:19:17;;;;;;;20.02;6.38;;;;;;;1.49;87.14;100045.56;5040653;28;20113;-77
2021/12/09 02:21:43;;;;;;;15.90;5.45;;;;;;;1.50;87.02;100042.00;5034766;28;20046;-78
2021/12/09 02:24:10;;;;;;;17.80;6.57;;;;;;;1.47;86.66;100039.50;5050150;28;20040;-77
2021/12/09 02:26:41;;;;;;;16.90;4.97;;;;;;;1.50;86.81;100039.34;5041365;28;20060;-77
2021/12/09 02:29:09;;;;;;;17.98;5.22;;;;;;;1.48;87.09;100031.47;5051578;28;20028;-77
2021/12/09 02:31:36;;;;;;;18.95;5.90;;;;;;;1.47;86.97;100034.22;5040624;28;20107;-77
2021/12/09 02:34:02;;;;;;;17.80;5.55;;;;;;;1.48;86.48;100030.59;5041511;28;20033;-77
2021/12/09 02:36:30;;;;;;;22.92;6.82;;;;;;;1.46;86.80;100032.47;5035505;28;20432;-77
2021/12/09 02:38:55;;;;;;;19.50;5.90;;;;;;;1.43;86.72;100032.63;5038385;28;20392;-77
2021/12/09 02:41:24;;;;;;;15.98;5.97;;;;;;;1.43;86.99;100032.63;5032708;28;20035;-77
2021/12/09 02:43:54;;;;;;;19.40;5.30;;;;;;;1.44;87.04;100043.16;5029745;28;20025;-77
2021/12/09 02:46:19;;;;;;;15.43;5.45;;;;;;;1.43;86.98;100033.47;5031481;28;20397;-77
2021/12/09 02:48:45;;;;;;;21.65;6.75;;;;;;;1.40;87.16;100042.44;5034174;28;20029;-77
2021/12/09 02:51:11;;;;;;;18.90;5.25;;;;;;;1.39;86.93;100037.22;5035509;28;20036;-76
2021/12/09 02:53:37;;;;;;;18.60;5.28;;;;;;;1.37;86.88;100033.78;5046842;28;20037;-76
2021/12/09 02:56:04;;;;;;;24.15;5.72;;;;;;;1.38;86.97;100041.66;5046774;28;20528;-76
2021/12/09 02:58:29;;;;;;;16.60;5.28;;;;;;;1.40;86.92;100038.94;5043314;28;20489;-76
2021/12/09 03:01:16;;;;;;;15.05;5.10;;;;;;;1.40;87.10;100034.47;5052683;28;20040;-76
2021/12/09 03:03:50;;;;;;;18.50;4.97;;;;;;;1.38;87.01;100041.66;5031117;28;20049;-76
2021/12/09 03:06:27;;;;;;;18.20;4.93;;;;;;;1.38;87.01;100046.94;5052006;28;20037;-76
2021/12/09 03:08:52;;;;;;;16.98;5.18;;;;;;;1.37;86.99;100050.53;5048471;28;20025;-76
2021/12/09 03:11:20;;;;;;;16.30;5.38;;;;;;;1.36;87.03;100056.78;5037841;28;20037;-76
2021/12/09 03:13:47;;;;;;;24.13;6.22;;;;;;;1.36;86.99;100056.78;5032627;28;20025;-76
2021/12/09 03:16:13;;;;;;;20.85;5.97;;;;;;;1.37;87.25;100055.81;5047946;28;20044;-76
2021/12/09 03:18:44;;;;;;;19.23;5.13;;;;;;;1.35;87.29;100057.69;5046630;28;20067;-76
2021/12/09 03:21:16;;;;;;;17.75;5.25;;;;;;;1.33;87.03;100063.97;5033859;28;20409;-77
2021/12/09 03:23:42;;;;;;;20.08;6.13;;;;;;;1.31;87.43;100069.34;5046533;28;20124;-77
2021/12/09 03:26:08;;;;;;;17.67;4.95;;;;;;;1.29;87.14;100071.22;5032489;28;20041;-77
2021/12/09 03:28:33;;;;;;;17.13;5.45;;;;;;;1.30;87.23;100078.22;5030382;28;20136;-77
2021/12/09 03:30:58;;;;;;;19.48;5.82;;;;;;;1.29;87.09;100083.59;5041771;28;20056;-77
2021/12/09 03:33:23;;;;;;;17.52;5.57;;;;;;;1.26;86.87;100068.72;5029915;28;20335;-77
2021/12/09 03:36:01;;;;;;;17.00;5.15;;;;;;;1.28;87.05;100061.56;5037689;28;20481;-77
2021/12/09 03:38:27;;;;;;;19.15;5.13;;;;;;;1.26;86.97;100065.19;5039349;28;20070;-77
2021/12/09 03:40:52;;;;;;;18.35;5.25;;;;;;;1.22;87.07;100073.28;5039856;28;20103;-77
2021/12/09 03:43:17;;;;;;;14.48;4.38;;;;;;;1.23;87.14;100084.75;5047533;28;20020;-77
2021/12/09 03:45:43;;;;;;;19.73;5.28;;;;;;;1.24;86.88;100085.59;5048111;28;20029;-77
2021/12/09 03:48:08;;;;;;;15.13;5.20;;;;;;;1.22;87.36;100093.63;5046814;28;20124;-77
2021/12/09 03:50:34;;;;;;;16.75;4.88;;;;;;;1.20;87.07;100090.16;5043459;28;20065;-77
2021/12/09 03:52:59;;;;;;;15.35;5.05;;;;;;;1.19;87.38;100088.47;5034464;28;20029;-77
2021/12/09 03:55:24;;;;;;;12.50;4.32;;;;;;;1.18;87.13;100086.75;5028500;28;20057;-77
2021/12/09 03:57:49;;;;;;;15.00;4.38;;;;;;;1.18;87.03;100086.75;5042692;28;20091;-77
2021/12/09 04:00:15;;;;;;;17.75;4.95;;;;;;;1.15;86.77;100095.69;5040040;28;20041;-77
2021/12/09 04:02:40;;;;;;;17.08;5.45;;;;;;;1.13;86.91;100091.38;5037129;28;20037;-77
2021/12/09 04:05:07;;;;;;;13.13;4.22;;;;;;;1.13;87.43;100094.03;5033470;28;20115;-77
2021/12/09 04:07:33;;;;;;;11.77;4.25;;;;;;;1.14;87.05;100082.53;5028357;28;20537;-77
2021/12/09 04:09:59;;;;;;;14.65;4.75;;;;;;;1.13;86.86;100076.38;5043050;28;20120;-77
2021/12/09 04:12:24;;;;;;;18.67;4.72;;;;;;;1.13;87.00;100073.72;5044703;28;20102;-77
2021/12/09 04:14:49;;;;;;;17.83;5.10;;;;;;;1.12;87.06;100081.75;5047246;28;20436;-76
2021/12/09 04:17:15;;;;;;;17.45;4.75;;;;;;;1.10;86.86;100091.53;5038970;28;20037;-76
2021/12/09 04:19:46;;;;;;;16.38;5.30;;;;;;;1.10;87.10;100084.47;5030412;28;20178;-76
2021/12/09 04:22:13;;;;;;;19.70;5.40;;;;;;;1.11;87.06;100087.97;5029973;28;20026;-77
2021/12/09 04:24:38;;;;;;;18.48;4.78;;;;;;;1.10;86.87;100087.13;5030044;28;20382;-77
2021/12/09 04:27:04;;;;;;;16.20;4.75;;;;;;;1.09;87.02;100085.38;5029378;28;20033;-77
2021/12/09 04:29:29;;;;;;;18.48;4.57;;;;;;;1.10;87.06;100089.75;5037493;28;20036;-77
2021/12/09 04:31:54;;;;;;;14.43;4.28;;;;;;;1.09;86.69;100089.84;5048329;28;20040;-77
2021/12/09 04:34:20;;;;;;;16.40;4.80;;;;;;;1.10;86.75;100094.16;5035740;28;20090;-77
2021/12/09 04:36:45;;;;;;;17.77;5.13;;;;;;;1.12;86.85;100093.19;5044333;28;20365;-77
2021/12/09 04:39:11;;;;;;;14.77;4.60;;;;;;;1.10;86.99;100094.16;5032320;28;20413;-77
2021/12/09 04:41:36;;;;;;;12.55;4.90;;;;;;;1.09;86.93;100093.31;5043969;28;20056;-77
2021/12/09 04:44:02;;;;;;;16.38;4.32;;;;;;;1.09;87.04;100105.72;5052098;28;20127;-77
2021/12/09 04:46:28;;;;;;;14.75;4.28;;;;;;;1.09;87.22;100103.06;5034992;28;20041;-77
2021/12/09 04:48:53;;;;;;;17.63;4.80;;;;;;;1.10;86.72;100104.75;5037126;28;20404;-77
2021/12/09 04:51:18;;;;;;;18.02;4.28;;;;;;;1.11;86.55;100111.78;5045581;28;20049;-77
2021/12/09 04:53:43;;;;;;;16.15;4.53;;;;;;;1.10;86.95;100099.47;5032160;28;20049;-77
2021/12/09 04:56:09;;;;;;;14.30;4.13;;;;;;;1.11;87.04;100101.19;5031763;28;20029;-77
2021/12/09 04:58:35;;;;;;;14.13;4.60;;;;;;;1.11;87.28;100106.47;5041673;28;20045;-77
2021/12/09 05:01:05;;;;;;;16.02;4.85;;;;;;;1.10;87.06;100103.00;5045377;28;20058;-77
2021/12/09 05:03:30;;;;;;;12.60;3.88;;;;;;;1.11;87.33;100096.75;5040029;28;20037;-77
2021/12/09 05:05:57;;;;;;;17.73;5.10;;;;;;;1.09;87.20;100092.47;5044677;28;20029;-77
2021/12/09 05:08:27;;;;;;;17.40;4.25;;;;;;;1.09;87.35;100098.63;5034959;28;20021;-77
2021/12/09 05:11:26;;;;;;;18.90;4.72;;;;;;;1.09;87.25;100101.25;5036775;28;20021;-77
2021/12/09 05:13:51;;;;;;;10.55;3.38;;;;;;;1.08;87.38;100101.34;5040919;28;20032;-77
2021/12/09 05:16:17;;;;;;;15.50;4.32;;;;;;;1.11;86.81;100107.34;5060932;28;20036;-77
2021/12/09 05:18:43;;;;;;;12.65;3.80;;;;;;;1.11;87.49;100111.78;5049279;28;20047;-77
2021/12/09 05:21:11;;;;;;;13.68;4.80;;;;;;;1.13;87.16;100117.84;5041740;28;20037;-78
2021/12/09 05:23:37;;;;;;;11.88;3.70;;;;;;;1.10;87.07;100118.00;5047868;28;20033;-77
2021/12/09 05:26:03;;;;;;;14.45;4.35;;;;;;;1.10;86.79;100116.22;5046643;28;20155;-77
2021/12/09 05:28:32;;;;;;;12.93;4.32;;;;;;;1.08;87.09;100111.91;5031913;28;20033;-77
2021/12/09 05:33:42;;;;;;;15.50;4.30;;;;;;;1.07;87.23;100116.38;5048349;28;20128;-77
2021/12/09 05:36:08;;;;;;;14.05;4.22;;;;;;;1.07;87.34;100115.50;5042067;28;20459;-77
2021/12/09 05:38:33;;;;;;;11.93;3.97;;;;;;;1.03;87.39;100115.63;5044568;28;20041;-77
2021/12/09 05:40:59;;;;;;;14.65;4.75;;;;;;;1.06;87.17;100121.72;5041767;28;20481;-77
2021/12/09 05:43:26;;;;;;;15.73;4.68;;;;;;;1.03;87.28;100123.56;5032660;28;20389;-77
2021/12/09 05:45:51;;;;;;;15.80;4.07;;;;;;;1.02;87.32;100128.94;5039329;28;20401;-77
2021/12/09 05:48:17;;;;;;;19.52;4.68;;;;;;;1.02;87.36;100132.44;5049924;28;20068;-77
2021/12/09 05:50:43;;;;;;;15.57;4.35;;;;;;;1.00;87.74;100134.28;5044670;28;20029;-77
2021/12/09 05:53:08;;;;;;;13.73;4.10;;;;;;;1.00;87.58;100126.34;5030412;28;20037;-77
2021/12/09 05:55:43;;;;;;;14.63;4.55;;;;;;;0.99;87.78;100129.94;5047393;28;20094;-77
2021/12/09 05:58:08;;;;;;;13.27;4.45;;;;;;;1.01;87.33;100136.03;5038911;28;20021;-77
2021/12/09 06:00:34;;;;;;;12.55;3.90;;;;;;;1.00;87.24;100129.00;5036828;28;20449;-77
2021/12/09 06:02:59;;;;;;;15.55;4.88;;;;;;;1.01;87.32;100122.78;5031967;28;20018;-77
2021/12/09 06:05:24;;;;;;;15.57;4.97;;;;;;;0.99;87.31;100134.38;5036628;28;20540;-77
2021/12/09 06:07:50;;;;;;;17.45;4.28;;;;;;;0.98;87.15;100130.88;5043314;28;20106;-77
2021/12/09 06:10:15;;;;;;;13.52;4.72;;;;;;;1.00;87.27;100129.00;5036830;28;20520;-77
2021/12/09 06:12:41;;;;;;;14.13;4.68;;;;;;;0.97;87.29;100129.16;5044083;28;20029;-77
2021/12/09 06:15:07;;;;;;;15.15;4.95;;;;;;;0.97;87.38;100131.78;5048315;28;20032;-77
2021/12/09 06:17:32;;;;;;;16.98;5.10;;;;;;;0.95;87.63;100132.78;5047696;28;20030;-77
2021/12/09 06:19:57;;;;;;;12.93;4.47;;;;;;;0.99;87.53;100129.94;5033575;28;20045;-77
2021/12/09 06:22:23;;;;;;;16.92;5.53;;;;;;;0.97;87.13;100123.00;5036334;28;20446;-77
2021/12/09 06:24:48;;;;;;;16.98;4.78;;;;;;;0.95;87.38;100125.72;5041703;28;20043;-77
2021/12/09 06:27:14;;;;;;;12.60;4.32;;;;;;;0.96;87.44;100119.47;5051367;28;20028;-77
2021/12/09 06:29:40;;;;;;;20.92;4.55;;;;;;;0.97;87.53;100121.22;5046805;28;20029;-77
2021/12/09 06:32:06;;;;;;;17.85;4.80;;;;;;;0.97;87.48;100130.94;5031993;28;20060;-77
2021/12/09 06:34:32;;;;;;;17.15;4.65;;;;;;;0.97;87.38;100125.66;5045798;28;20049;-77
2021/12/09 06:36:57;;;;;;;16.10;5.25;;;;;;;0.99;87.62;100132.56;5037431;28;20036;-77
2021/12/09 06:39:23;;;;;;;15.07;4.28;;;;;;;0.97;87.59;100131.78;5033675;28;20025;-77
2021/12/09 06:41:48;;;;;;;18.83;4.95;;;;;;;0.97;87.24;100133.59;5031382;28;20025;-77
2021/12/09 06:44:14;;;;;;;15.85;4.68;;;;;;;0.93;87.46;100138.16;5032551;28;20057;-77
2021/12/09 06:46:39;;;;;;;17.27;5.10;;;;;;;0.93;87.76;100143.44;5035426;28;20087;-77
2021/12/09 06:49:05;;;;;;;18.17;5.18;;;;;;;0.92;87.50;100144.34;5033917;28;20116;-77
2021/12/09 06:51:31;;;;;;;18.75;5.85;;;;;;;0.91;87.35;100140.00;5030307;28;20118;-77
2021/12/09 06:53:56;;;;;;;14.30;4.75;;;;;;;0.96;87.33;100139.81;5041640;28;20115;-77
2021/12/09 06:56:22;;;;;;;19.90;4.55;;;;;;;0.99;87.67;100143.16;5031144;28;20030;-77
2021/12/09 06:58:48;;;;;;;16.00;4.68;;;;;;;1.00;87.38;100147.53;5037336;28;20026;-77
2021/12/09 07:01:14;;;;;;;16.02;4.20;;;;;;;0.97;87.16;100144.19;5037953;28;20069;-77
2021/12/09 07:03:39;;;;;;;20.88;4.95;;;;;;;0.96;87.07;100145.94;5035859;28;20048;-76
2021/12/09 07:06:06;;;;;;;17.88;5.38;;;;;;;0.94;87.39;100147.81;5048287;28;20582;-76
2021/12/09 07:08:42;;;;;;;15.05;5.07;;;;;;;0.93;87.30;100151.38;5034967;28;20021;-77
2021/12/09 07:11:08;;;;;;;20.50;4.78;;;;;;;0.95;87.31;100157.47;5034677;28;20080;-77
2021/12/09 07:13:33;;;;;;;14.10;4.28;;;;;;;0.98;87.21;100153.81;5045253;28;20406;-77
2021/12/09 07:15:59;;;;;;;17.92;4.80;;;;;;;0.97;87.06;100154.75;5030739;28;20071;-77
2021/12/09 07:18:25;;;;;;;18.95;4.65;;;;;;;0.96;87.44;100159.16;5029165;28;20421;-77
2021/12/09 07:20:52;;;;;;;15.05;4.80;;;;;;;0.94;87.61;100153.09;5040852;28;20099;-77
2021/12/09 07:23:17;;;;;;;16.90;4.60;;;;;;;0.95;87.42;100154.81;5032505;28;20029;-77
2021/12/09 07:25:42;;;;;;;20.52;4.93;;;;;;;0.95;87.58;100154.81;5046007;28;20357;-77
2021/12/09 07:28:08;;;;;;;18.50;6.03;;;;;;;0.94;87.63;100155.75;5040805;28;20021;-77
2021/12/09 07:30:33;;;;;;;17.58;5.03;;;;;;;0.94;87.92;100154.88;5042337;28;20079;-77
2021/12/09 07:32:58;;;;;;;18.65;4.65;;;;;;;0.95;87.60;100154.81;5039215;28;20033;-77
2021/12/09 07:35:30;;;;;;;15.95;4.13;;;;;;;0.98;87.47;100153.81;5041247;28;20048;-77
2021/12/09 07:37:55;;;;;;;18.40;4.90;;;;;;;0.95;87.88;100154.81;5046459;28;20033;-77
2021/12/09 07:40:20;;;;;;;15.40;4.00;;;;;;;0.95;87.71;100160.13;5041093;28;20036;-76
2021/12/09 07:42:47;;;;;;;15.50;5.07;;;;;;;0.95;87.72;100153.94;5044085;28;20021;-76
2021/12/09 07:45:12;;;;;;;13.18;4.63;;;;;;;0.95;88.04;100159.25;5036967;28;20032;-76
2021/12/09 07:47:38;;;;;;;14.38;4.90;;;;;;;0.94;87.97;100158.38;5042810;28;20035;-76
2021/12/09 07:50:07;;;;;;;15.80;4.55;;;;;;;0.96;88.06;100161.81;5059572;28;20506;-76
2021/12/09 07:52:33;;;;;;;16.55;4.72;;;;;;;1.00;87.80;100167.84;5046093;28;20151;-76
2021/12/09 07:54:58;;;;;;;18.85;5.22;;;;;;;0.99;87.42;100164.31;5038843;28;20176;-76
2021/12/09 07:57:24;;;;;;;16.80;5.10;;;;;;;1.00;87.86;100165.19;5047829;28;20188;-76
2021/12/09 07:59:49;;;;;;;18.73;4.80;;;;;;;1.01;87.90;100172.19;5046265;28;20561;-76
2021/12/09 08:02:16;;;;;;;20.55;5.03;;;;;;;1.01;87.81;100162.47;5045831;28;20086;-76
2021/12/09 08:04:41;;;;;;;15.45;4.72;;;;;;;1.04;87.58;100172.09;5041839;28;20032;-76
2021/12/09 08:07:06;;;;;;;17.02;4.57;;;;;;;1.03;87.96;100183.59;5042114;28;20033;-76
2021/12/09 08:09:32;;;;;;;19.20;5.07;;;;;;;1.04;88.10;100183.50;5042577;28;20393;-77
2021/12/09 08:11:57;;;;;;;15.40;4.43;;;;;;;1.08;88.15;100188.66;5040810;28;20032;-77
2021/12/09 08:14:22;;;;;;;18.50;5.35;;;;;;;1.14;88.08;100191.03;5043897;28;20025;-76
2021/12/09 08:16:57;;;;;;;17.40;4.93;;;;;;;1.20;88.33;100188.09;5050619;28;20557;-76
2021/12/09 08:19:23;;;;;;;14.10;4.90;;;;;;;1.25;88.35;100196.72;5041861;28;20135;-77
2021/12/09 08:21:48;;;;;;;16.27;4.70;;;;;;;1.33;87.96;100191.94;5048823;28;20103;-77
2021/12/09 08:24:13;;;;;;;16.95;4.63;;;;;;;1.37;87.82;100187.34;5043181;28;20166;-77
2021/12/09 08:26:39;;;;;;;15.30;4.32;;;;;;;1.40;87.94;100188.06;5042042;28;20024;-77
2021/12/09 08:29:05;;;;;;;14.65;4.80;;;;;;;1.44;87.93;100194.09;5037777;28;20022;-76
2021/12/09 08:31:33;;;;;;;17.02;5.00;;;;;;;1.49;87.87;100189.41;5037639;28;20029;-76
2021/12/09 08:33:59;;;;;;;16.63;4.32;;;;;;;1.53;87.65;100184.84;5039185;28;20083;-76
2021/12/09 08:36:24;;;;;;;16.00;5.07;;;;;;;1.56;87.77;100180.25;5041223;28;20029;-76
2021/12/09 08:38:50;;;;;;;15.13;4.88;;;;;;;1.59;87.61;100187.22;5044384;28;20047;-76
2021/12/09 08:41:17;;;;;;;19.35;6.10;;;;;;;1.61;87.60;100185.38;5045441;28;20032;-76
2021/12/09 08:43:43;;;;;;;15.52;5.18;;;;;;;1.65;87.61;100188.72;5037267;28;20392;-76
2021/12/09 08:46:08;;;;;;;20.50;6.22;;;;;;;1.68;87.44;100180.63;5051450;28;20043;-77
2021/12/09 08:48:33;;;;;;;15.23;5.10;;;;;;;1.72;87.79;100185.69;5043336;28;20083;-77
2021/12/09 08:50:59;;;;;;;18.63;6.03;;;;;;;1.78;87.48;100191.66;5043899;28;20062;-77
2021/12/09 08:53:25;;;;;;;20.95;6.22;;;;;;;1.81;87.51;100200.31;5043018;28;20029;-77
2021/12/09 08:55:52;;;;;;;19.45;5.57;;;;;;;1.86;87.35;100197.44;5051909;28;20433;-77
2021/12/09 08:58:17;;;;;;;15.38;4.82;;;;;;;1.88;87.26;100192.94;5044814;28;20029;-77
2021/12/09 09:00:44;;;;;;;19.75;5.78;;;;;;;1.91;87.13;100193.63;5045990;28;20047;-77
2021/12/09 09:03:10;;;;;;;17.42;5.60;;;;;;;1.94;87.60;100191.78;5044158;28;20112;-77
2021/12/09 09:05:37;;;;;;;17.67;5.25;;;;;;;2.00;87.57;100208.22;5042289;28;20692;-77
2021/12/09 09:08:04;;;;;;;18.77;6.00;;;;;;;2.01;87.21;100203.81;5048232;28;20037;-77
2021/12/09 09:10:32;;;;;;;16.92;5.78;;;;;;;2.04;87.48;100196.56;5050817;28;20029;-77
2021/12/09 09:12:57;;;;;;;16.13;5.75;;;;;;;2.09;87.10;100194.56;5043603;28;20515;-77
2021/12/09 09:15:26;;;;;;;16.98;4.97;;;;;;;2.15;87.54;100195.16;5042770;28;20025;-77
2021/12/09 09:17:52;;;;;;;24.98;5.78;;;;;;;2.18;87.03;100200.31;5061368;28;20438;-77
2021/12/09 09:20:20;;;;;;;14.13;4.88;;;;;;;2.23;87.08;100198.31;5046979;28;20084;-77
2021/12/09 09:22:45;;;;;;;16.58;4.78;;;;;;;2.29;87.35;100191.84;5047943;28;20025;-77
2021/12/09 09:25:17;;;;;;;22.15;5.80;;;;;;;2.34;87.14;100190.66;5044976;28;20040;-77
2021/12/09 09:27:43;;;;;;;18.05;5.45;;;;;;;2.38;87.21;100192.22;5042217;28;20052;-77
2021/12/09 09:30:13;;;;;;;16.80;5.07;;;;;;;2.43;87.15;100189.34;5051556;28;20047;-77
2021/12/09 09:32:39;;;;;;;18.55;5.57;;;;;;;2.46;87.24;100194.53;5048627;28;20369;-77
2021/12/09 09:35:04;;;;;;;14.85;4.50;;;;;;;2.50;86.86;100197.88;5046895;28;20033;-77
2021/12/09 09:37:30;;;;;;;23.48;6.32;;;;;;;2.54;86.89;100191.47;5046720;28;20431;-77
2021/12/09 09:39:55;;;;;;;17.08;5.20;;;;;;;2.60;87.02;100201.78;5045365;28;20175;-77
2021/12/09 09:42:45;;;;;;;18.70;6.18;;;;;;;2.64;86.27;100200.69;5053322;28;20421;-77
2021/12/09 09:45:12;;;;;;;24.17;6.47;;;;;;;2.67;86.66;100199.69;5045454;28;20471;-77
2021/12/09 09:47:39;;;;;;;17.85;5.07;;;;;;;2.70;86.67;100197.72;5047441;28;20025;-77
2021/12/09 09:50:10;;;;;;;19.40;5.63;;;;;;;2.71;86.25;100211.84;5045844;28;20028;-77
2021/12/09 09:52:36;;;;;;;18.23;6.28;;;;;;;2.72;86.66;100218.88;5043780;28;20052;-77
2021/12/09 09:55:06;;;;;;;15.82;5.15;;;;;;;2.73;86.67;100210.81;5048811;28;20112;-77
2021/12/09 09:57:32;;;;;;;16.88;5.60;;;;;;;2.76;87.07;100223.94;5042957;28;20108;-77
2021/12/09 09:59:57;;;;;;;21.98;7.15;;;;;;;2.81;87.25;100213.06;5050675;28;20032;-77
2021/12/09 10:02:23;;;;;;;18.13;6.55;;;;;;;2.89;86.86;100216.22;5046528;28;20035;-77
2021/12/09 10:04:57;;;;;;;15.95;5.68;;;;;;;2.91;86.89;100211.66;5045987;28;20036;-77
2021/12/09 10:07:23;;;;;;;14.18;5.13;;;;;;;2.95;86.49;100209.72;5045793;28;20040;-77
2021/12/09 10:09:49;;;;;;;18.73;5.70;;;;;;;3.00;86.54;100215.63;5044410;28;20021;-77
2021/12/09 10:12:15;;;;;;;21.58;5.90;;;;;;;3.01;86.87;100216.53;5044977;28;20745;-77
2021/12/09 10:14:46;;;;;;;16.42;4.95;;;;;;;3.03;86.59;100212.84;5046646;28;20029;-77
2021/12/09 10:17:14;;;;;;;17.58;5.07;;;;;;;3.07;86.85;100214.38;5045031;28;20025;-77
2021/12/09 10:19:47;;;;;;;16.42;5.90;;;;;;;3.13;86.47;100195.50;5044284;28;20082;-77
2021/12/09 10:22:20;;;;;;;22.42;6.72;;;;;;;3.18;86.39;100197.91;5047058;28;20385;-78
2021/12/09 10:24:48;;;;;;;17.33;5.28;;;;;;;3.24;86.26;100188.75;5041268;28;20091;-77
2021/12/09 10:27:27;;;;;;;20.55;5.90;;;;;;;3.29;86.18;100189.34;5046280;28;20035;-77
2021/12/09 10:29:58;;;;;;;12.40;4.88;;;;;;;3.32;85.42;100190.06;5041056;28;20025;-77
2021/12/09 10:32:30;;;;;;;16.52;5.28;;;;;;;3.31;85.88;100188.34;5041648;28;20586;-77
2021/12/09 10:35:06;;;;;;;21.73;5.88;;;;;;;3.27;85.96;100181.47;5048356;28;20025;-77
2021/12/09 10:37:33;;;;;;;19.35;5.50;;;;;;;3.28;85.45;100182.31;5040023;28;20342;-77
2021/12/09 10:40:06;;;;;;;16.60;5.50;;;;;;;3.26;85.50;100182.41;5043797;28;20033;-77
2021/12/09 10:42:34;;;;;;;15.90;5.57;;;;;;;3.28;85.84;100182.31;5052628;28;20029;-77
2021/12/09 10:45:13;;;;;;;16.33;5.97;;;;;;;3.30;86.06;100183.13;5044631;28;20186;-77
2021/12/09 10:48:01;;;;;;;16.08;5.15;;;;;;;3.35;86.10;100193.47;5042734;28;20075;-77
2021/12/09 10:50:34;;;;;;;17.33;5.47;;;;;;;3.36;85.69;100189.91;5041800;28;20413;-77
2021/12/09 10:53:06;;;;;;;21.48;6.18;;;;;;;3.36;85.90;100190.75;5043394;28;20130;-77
2021/12/09 10:55:35;;;;;;;16.92;5.60;;;;;;;3.38;86.11;100196.81;5038863;28;20113;-77
2021/12/09 10:58:05;;;;;;;16.42;5.10;;;;;;;3.40;85.93;100199.41;5042213;28;20098;-77
2021/12/09 11:00:54;;;;;;;;;;;;;;;3.46;86.01;100201.75;5041360;28;20090;-77
2021/12/09 11:03:35;;;;;;;19.30;6.35;;;;;;;3.48;86.09;100199.84;5053708;28;19912;-77
2021/12/09 11:06:09;;;;;;;17.58;5.78;;;;;;;3.51;86.05;100197.00;5045962;28;20025;-77
2021/12/09 11:08:34;;;;;;;21.42;6.10;;;;;;;3.54;86.02;100193.34;5042265;28;20063;-77
2021/12/09 11:11:01;;;;;;;24.73;6.45;;;;;;;3.58;85.91;100189.59;5043986;28;20033;-77
2021/12/09 11:13:39;;;;;;;15.93;6.05;;;;;;;3.64;86.01;100189.25;5042960;28;20044;-77
2021/12/09 11:16:05;;;;;;;16.48;5.38;;;;;;;3.68;85.51;100180.16;5038551;28;20032;-77
2021/12/09 11:18:41;;;;;;;17.98;5.65;;;;;;;3.71;85.39;100179.13;5042624;28;20040;-77
2021/12/09 11:21:10;;;;;;;15.43;5.13;;;;;;;3.73;85.24;100183.41;5042217;28;20134;-77
2021/12/09 11:23:43;;;;;;;17.73;6.03;;;;;;;3.77;85.52;100176.97;5042930;28;20035;-77
2021/12/09 11:26:27;;;;;;;15.18;5.35;;;;;;;3.81;85.79;100172.38;5043495;28;20384;-77
2021/12/09 11:28:58;;;;;;;17.15;6.00;;;;;;;3.83;85.33;100173.13;5040394;28;20040;-77
2021/12/09 11:31:28;;;;;;;16.13;5.63;;;;;;;3.84;85.31;100159.75;5040212;28;20021;-77